Gibson, Iowa
Current Conditions -  °F | °C
As of 2:55 AM on Friday 31 Oct 2014 (Local Time) from KOOA Reporting Station
Overcast Overcast  
Wind Chill: 30°   Ceiling: 4000
Heat Index: 41°   Visibility: 10mi
Dew Point: 29°   Wind: 26mph
Humidity: 61%   Direction: 340°NNW
Pressure: 30.26"   Gusts: 36mph
Location:  41.48°N, 92.39°W
Report Text: KOOA 310755Z AUTO 34023G31KT 10SM OVC040 05/M02 A3026 RMK AO2 T00501019
Loading
Personal Weather Stations






























Interactive Weather Map
Tropical Storm Tracking
New forecast layout! Learn more

10-Day Weather Forecast

Advertisements
Track Severe Weather on mobile